QFA146 NZAA-YSSY
Flight info
| Callsign | QFA146 |
|---|---|
| Flight time | 2h 57m |
| Altitude | 40000 |
| Route | VELMO/N0490F430 DCT 38S163E DCT PLUGA DCT RIKNI N774 MARLN |
| Aircraft | A359/H-SDE2E3GHIJ3J4J5LM1ORWXY/LB1D1 |
Departure
| Time | 2026-04-22 07:26 |
|---|---|
| Airport | Auckland International Airport (NZAA) |
Arrival
| Time | 2026-04-22 10:23 |
|---|---|
| Airport | Sydney Kingsford Smith International Airport (YSSY) |
| Time | Latitude | Longitude | Altitude | Speed | Heading |
|---|---|---|---|---|---|
| 2026-04-22 07:05 | -37.00860 | 174.78221 | 32 ft | 0 kts | 17° |
| 2026-04-22 07:17 | -37.00861 | 174.78221 | 32 ft | 1 kts | 16° |
| 2026-04-22 07:17 | -37.00873 | 174.78216 | 29 ft | 3 kts | 19° |
| 2026-04-22 07:17 | -37.00891 | 174.78208 | 30 ft | 2 kts | 22° |
| 2026-04-22 07:17 | -37.00907 | 174.78199 | 29 ft | 3 kts | 32° |
| 2026-04-22 07:18 | -37.00922 | 174.78186 | 30 ft | 3 kts | 51° |
| 2026-04-22 07:18 | -37.00931 | 174.78170 | 29 ft | 3 kts | 79° |
| 2026-04-22 07:18 | -37.00932 | 174.78152 | 29 ft | 3 kts | 109° |
| 2026-04-22 07:18 | -37.00924 | 174.78130 | 30 ft | 3 kts | 124° |
| 2026-04-22 07:19 | -37.00913 | 174.78110 | 31 ft | 3 kts | 126° |
| 2026-04-22 07:19 | -37.00903 | 174.78092 | 31 ft | 1 kts | 119° |
| 2026-04-22 07:19 | -37.00897 | 174.78078 | 31 ft | 3 kts | 124° |
| 2026-04-22 07:19 | -37.00885 | 174.78059 | 32 ft | 3 kts | 137° |
| 2026-04-22 07:20 | -37.00870 | 174.78044 | 30 ft | 3 kts | 151° |
| 2026-04-22 07:20 | -37.00853 | 174.78033 | 32 ft | 3 kts | 162° |
| 2026-04-22 07:20 | -37.00833 | 174.78026 | 31 ft | 3 kts | 163° |
| 2026-04-22 07:20 | -37.00824 | 174.78023 | 32 ft | 0 kts | 161° |
| 2026-04-22 07:22 | -37.00867 | 174.78049 | 31 ft | 5 kts | 142° |
| 2026-04-22 07:22 | -37.00908 | 174.78119 | 32 ft | 20 kts | 117° |
| 2026-04-22 07:23 | -37.00986 | 174.78282 | 32 ft | 26 kts | 109° |
| 2026-04-22 07:23 | -37.00949 | 174.78523 | 32 ft | 30 kts | 70° |
| 2026-04-22 07:23 | -37.00877 | 174.78781 | 32 ft | 33 kts | 72° |
| 2026-04-22 07:23 | -37.00777 | 174.79155 | 32 ft | 53 kts | 71° |
| 2026-04-22 07:24 | -37.00657 | 174.79591 | 32 ft | 53 kts | 70° |
| 2026-04-22 07:24 | -37.00555 | 174.79929 | 32 ft | 30 kts | 66° |
| 2026-04-22 07:24 | -37.00479 | 174.80181 | 32 ft | 32 kts | 70° |
| 2026-04-22 07:24 | -37.00464 | 174.80333 | 32 ft | 0 kts | 123° |
| 2026-04-22 07:25 | -37.00532 | 174.80410 | 31 ft | 24 kts | 141° |
| 2026-04-22 07:25 | -37.00573 | 174.80458 | 32 ft | 0 kts | 136° |
| 2026-04-22 07:25 | -37.00637 | 174.80508 | 32 ft | 21 kts | 168° |
| 2026-04-22 07:25 | -37.00681 | 174.80487 | 32 ft | 0 kts | 242° |
| 2026-04-22 07:26 | -37.00696 | 174.80445 | 32 ft | 29 kts | 248° |
| 2026-04-22 07:26 | -37.00869 | 174.79826 | 32 ft | 118 kts | 251° |
| 2026-04-22 07:26 | -37.01218 | 174.78591 | 227 ft | 171 kts | 250° |
| 2026-04-22 07:26 | -37.01626 | 174.77106 | 887 ft | 194 kts | 252° |
| 2026-04-22 07:27 | -37.02088 | 174.75361 | 1353 ft | 229 kts | 252° |
| 2026-04-22 07:27 | -37.02625 | 174.73310 | 1842 ft | 265 kts | 252° |
| 2026-04-22 07:27 | -37.03229 | 174.71059 | 2602 ft | 268 kts | 250° |
| 2026-04-22 07:27 | -37.03848 | 174.68893 | 3389 ft | 261 kts | 250° |
| 2026-04-22 07:28 | -37.05069 | 174.64575 | 5098 ft | 264 kts | 251° |
| 2026-04-22 07:28 | -37.05680 | 174.62397 | 6068 ft | 267 kts | 251° |
| 2026-04-22 07:28 | -37.06290 | 174.60182 | 7034 ft | 270 kts | 251° |
| 2026-04-22 07:29 | -37.06895 | 174.57974 | 8008 ft | 274 kts | 251° |
| 2026-04-22 07:29 | -37.07517 | 174.55702 | 8995 ft | 278 kts | 251° |
| 2026-04-22 07:29 | -37.08149 | 174.53398 | 9975 ft | 282 kts | 251° |
| 2026-04-22 07:29 | -37.08805 | 174.51011 | 10646 ft | 300 kts | 251° |
| 2026-04-22 07:30 | -37.09502 | 174.48459 | 11229 ft | 317 kts | 251° |
| 2026-04-22 07:30 | -37.10226 | 174.45804 | 12076 ft | 325 kts | 251° |
| 2026-04-22 07:30 | -37.10966 | 174.43099 | 12964 ft | 331 kts | 251° |
| 2026-04-22 07:30 | -37.11851 | 174.40414 | 13835 ft | 336 kts | 245° |
| 2026-04-22 07:31 | -37.12836 | 174.37738 | 14705 ft | 341 kts | 245° |
| 2026-04-22 07:31 | -37.13828 | 174.35014 | 15538 ft | 346 kts | 246° |
| 2026-04-22 07:31 | -37.14817 | 174.32253 | 16369 ft | 350 kts | 246° |
| 2026-04-22 07:31 | -37.15810 | 174.29449 | 17177 ft | 355 kts | 246° |
| 2026-04-22 07:32 | -37.16805 | 174.26626 | 17980 ft | 359 kts | 246° |
| 2026-04-22 07:32 | -37.17816 | 174.23746 | 18792 ft | 364 kts | 246° |
| 2026-04-22 07:32 | -37.18840 | 174.20820 | 19583 ft | 368 kts | 246° |
| 2026-04-22 07:32 | -37.19874 | 174.17863 | 20353 ft | 372 kts | 246° |
| 2026-04-22 07:33 | -37.20923 | 174.14856 | 21109 ft | 377 kts | 246° |
| 2026-04-22 07:33 | -37.21980 | 174.11824 | 21851 ft | 381 kts | 246° |
| 2026-04-22 07:33 | -37.23050 | 174.08752 | 22603 ft | 386 kts | 246° |
| 2026-04-22 07:33 | -37.24130 | 174.05646 | 23340 ft | 390 kts | 246° |
| 2026-04-22 07:34 | -37.25220 | 174.02512 | 24052 ft | 395 kts | 246° |
| 2026-04-22 07:34 | -37.26325 | 173.99327 | 24746 ft | 399 kts | 246° |
| 2026-04-22 07:34 | -37.27437 | 173.96120 | 25411 ft | 404 kts | 246° |
| 2026-04-22 07:34 | -37.28561 | 173.92875 | 26052 ft | 408 kts | 246° |
| 2026-04-22 07:35 | -37.29702 | 173.89576 | 26695 ft | 412 kts | 246° |
| 2026-04-22 07:35 | -37.30832 | 173.86306 | 27308 ft | 416 kts | 246° |
| 2026-04-22 07:35 | -37.31991 | 173.82950 | 27926 ft | 420 kts | 246° |
| 2026-04-22 07:35 | -37.33156 | 173.79572 | 28497 ft | 424 kts | 246° |
| 2026-04-22 07:36 | -37.34333 | 173.76156 | 29079 ft | 428 kts | 246° |
| 2026-04-22 07:36 | -37.35520 | 173.72711 | 29622 ft | 431 kts | 246° |
| 2026-04-22 07:36 | -37.36714 | 173.69239 | 30144 ft | 435 kts | 247° |
| 2026-04-22 07:36 | -37.37918 | 173.65726 | 30650 ft | 439 kts | 247° |
| 2026-04-22 07:37 | -37.39128 | 173.62191 | 31132 ft | 442 kts | 247° |
| 2026-04-22 07:37 | -37.40348 | 173.58627 | 31602 ft | 446 kts | 247° |
| 2026-04-22 07:37 | -37.41577 | 173.55032 | 32047 ft | 449 kts | 247° |
| 2026-04-22 07:37 | -37.42816 | 173.51402 | 32489 ft | 452 kts | 247° |
| 2026-04-22 07:38 | -37.44066 | 173.47739 | 32913 ft | 456 kts | 247° |
| 2026-04-22 07:38 | -37.45315 | 173.44071 | 33332 ft | 459 kts | 247° |
| 2026-04-22 07:38 | -37.46574 | 173.40369 | 33748 ft | 461 kts | 247° |
| 2026-04-22 07:38 | -37.47838 | 173.36650 | 34314 ft | 460 kts | 247° |
| 2026-04-22 07:39 | -37.49077 | 173.32998 | 34878 ft | 459 kts | 247° |
| 2026-04-22 07:39 | -37.50328 | 173.29310 | 35415 ft | 457 kts | 247° |
| 2026-04-22 07:39 | -37.51573 | 173.25632 | 35928 ft | 457 kts | 247° |
| 2026-04-22 07:39 | -37.52818 | 173.21949 | 36418 ft | 456 kts | 247° |
| 2026-04-22 07:40 | -37.54062 | 173.18266 | 36862 ft | 456 kts | 247° |
| 2026-04-22 07:40 | -37.55300 | 173.14594 | 37284 ft | 456 kts | 247° |
| 2026-04-22 07:40 | -37.56539 | 173.10916 | 37692 ft | 456 kts | 247° |
| 2026-04-22 07:40 | -37.57773 | 173.07247 | 38087 ft | 456 kts | 247° |
| 2026-04-22 07:41 | -37.59013 | 173.03556 | 38463 ft | 456 kts | 247° |
| 2026-04-22 07:41 | -37.60248 | 172.99875 | 38826 ft | 456 kts | 247° |
| 2026-04-22 07:41 | -37.61483 | 172.96191 | 39177 ft | 456 kts | 247° |
| 2026-04-22 07:41 | -37.62719 | 172.92500 | 39516 ft | 456 kts | 247° |
| 2026-04-22 07:42 | -37.63955 | 172.88801 | 39848 ft | 456 kts | 247° |
| 2026-04-22 07:42 | -37.65193 | 172.85094 | 39993 ft | 457 kts | 247° |
| 2026-04-22 07:42 | -37.67653 | 172.77712 | 40000 ft | 456 kts | 247° |
| 2026-04-22 07:43 | -37.70110 | 172.70318 | 40000 ft | 456 kts | 247° |
| 2026-04-22 07:43 | -37.72551 | 172.62957 | 40002 ft | 456 kts | 247° |
| 2026-04-22 07:44 | -37.74999 | 172.55556 | 40002 ft | 456 kts | 247° |
| 2026-04-22 07:44 | -37.77439 | 172.48159 | 40000 ft | 456 kts | 248° |
| 2026-04-22 07:45 | -37.79875 | 172.40753 | 40000 ft | 456 kts | 248° |
| 2026-04-22 07:45 | -37.82311 | 172.33332 | 40000 ft | 456 kts | 248° |
| 2026-04-22 07:46 | -37.84738 | 172.25917 | 40001 ft | 456 kts | 248° |
| 2026-04-22 07:46 | -37.87162 | 172.18493 | 39999 ft | 456 kts | 248° |
| 2026-04-22 07:47 | -37.89584 | 172.11056 | 40001 ft | 456 kts | 248° |
| 2026-04-22 07:47 | -37.91997 | 172.03625 | 39999 ft | 456 kts | 248° |
| 2026-04-22 07:48 | -37.94407 | 171.96188 | 40000 ft | 456 kts | 248° |
| 2026-04-22 07:48 | -37.96811 | 171.88748 | 40000 ft | 456 kts | 248° |
| 2026-04-22 07:49 | -37.99208 | 171.81310 | 40000 ft | 456 kts | 248° |
| 2026-04-22 07:49 | -38.01588 | 171.73906 | 39999 ft | 456 kts | 248° |
| 2026-04-22 07:50 | -38.03576 | 171.67707 | 40000 ft | 456 kts | 248° |
| 2026-04-22 07:50 | -38.06360 | 171.59000 | 40000 ft | 456 kts | 248° |
| 2026-04-22 07:51 | -38.08339 | 171.52798 | 39999 ft | 456 kts | 248° |
| 2026-04-22 07:51 | -38.10714 | 171.45334 | 40000 ft | 456 kts | 248° |
| 2026-04-22 07:52 | -38.13085 | 171.37865 | 40000 ft | 456 kts | 248° |
| 2026-04-22 07:52 | -38.15449 | 171.30396 | 40002 ft | 456 kts | 248° |
| 2026-04-22 07:53 | -38.17795 | 171.22967 | 40000 ft | 455 kts | 248° |
| 2026-04-22 07:53 | -38.20148 | 171.15493 | 40001 ft | 455 kts | 248° |
| 2026-04-22 07:54 | -38.22501 | 171.08002 | 39999 ft | 455 kts | 248° |
| 2026-04-22 07:54 | -38.24846 | 171.00515 | 40002 ft | 455 kts | 248° |
| 2026-04-22 07:55 | -38.26857 | 170.92890 | 39999 ft | 455 kts | 259° |
| 2026-04-22 07:55 | -38.27255 | 170.84873 | 40048 ft | 455 kts | 269° |
| 2026-04-22 07:56 | -38.27252 | 170.80833 | 40284 ft | 456 kts | 270° |
| 2026-04-22 07:56 | -38.27218 | 170.76804 | 40623 ft | 456 kts | 271° |
| 2026-04-22 07:56 | -38.27180 | 170.72778 | 40936 ft | 455 kts | 270° |
| 2026-04-22 07:56 | -38.27147 | 170.68739 | 41226 ft | 455 kts | 270° |
| 2026-04-22 07:57 | -38.27122 | 170.64764 | 41496 ft | 455 kts | 270° |
| 2026-04-22 07:57 | -38.27103 | 170.60733 | 41765 ft | 455 kts | 270° |
| 2026-04-22 07:57 | -38.27087 | 170.56701 | 42025 ft | 455 kts | 270° |
| 2026-04-22 07:57 | -38.27072 | 170.52671 | 42271 ft | 455 kts | 270° |
| 2026-04-22 07:58 | -38.27057 | 170.48644 | 42511 ft | 455 kts | 270° |
| 2026-04-22 07:58 | -38.27040 | 170.44610 | 42718 ft | 456 kts | 270° |
| 2026-04-22 07:58 | -38.27022 | 170.40567 | 42882 ft | 457 kts | 270° |
| 2026-04-22 07:58 | -38.27001 | 170.36518 | 42989 ft | 461 kts | 270° |
| 2026-04-22 07:59 | -38.26955 | 170.28275 | 43002 ft | 468 kts | 270° |
| 2026-04-22 07:59 | -38.26902 | 170.20054 | 43000 ft | 468 kts | 270° |
| 2026-04-22 08:00 | -38.26844 | 170.11782 | 43000 ft | 467 kts | 270° |
| 2026-04-22 08:00 | -38.26780 | 170.03518 | 43000 ft | 467 kts | 270° |
| 2026-04-22 08:01 | -38.26709 | 169.95230 | 43000 ft | 467 kts | 270° |
| 2026-04-22 08:01 | -38.26633 | 169.86960 | 43000 ft | 467 kts | 270° |
| 2026-04-22 08:02 | -38.26552 | 169.78687 | 43000 ft | 467 kts | 271° |
| 2026-04-22 08:02 | -38.26464 | 169.70424 | 43000 ft | 467 kts | 271° |
| 2026-04-22 08:03 | -38.26372 | 169.62215 | 43000 ft | 467 kts | 271° |
| 2026-04-22 08:03 | -38.26273 | 169.53962 | 43000 ft | 467 kts | 271° |
| 2026-04-22 08:04 | -38.26168 | 169.45686 | 43000 ft | 467 kts | 271° |
| 2026-04-22 08:04 | -38.26057 | 169.37430 | 43000 ft | 467 kts | 271° |
| 2026-04-22 08:05 | -38.25941 | 169.29159 | 43000 ft | 467 kts | 271° |
| 2026-04-22 08:05 | -38.25819 | 169.20906 | 43000 ft | 467 kts | 271° |
| 2026-04-22 08:06 | -38.25691 | 169.12696 | 43000 ft | 467 kts | 271° |
| 2026-04-22 08:06 | -38.25557 | 169.04400 | 43000 ft | 467 kts | 271° |
| 2026-04-22 08:07 | -38.25418 | 168.96189 | 43000 ft | 466 kts | 271° |
| 2026-04-22 08:07 | -38.25273 | 168.87932 | 43000 ft | 466 kts | 271° |
| 2026-04-22 08:08 | -38.25122 | 168.79674 | 43000 ft | 466 kts | 271° |
| 2026-04-22 08:08 | -38.24965 | 168.71421 | 43000 ft | 466 kts | 271° |
| 2026-04-22 08:09 | -38.24803 | 168.63174 | 43000 ft | 466 kts | 271° |
| 2026-04-22 08:09 | -38.24635 | 168.54923 | 43000 ft | 466 kts | 271° |
| 2026-04-22 08:10 | -38.24461 | 168.46684 | 43000 ft | 466 kts | 271° |
| 2026-04-22 08:10 | -38.24282 | 168.38484 | 43000 ft | 466 kts | 271° |
| 2026-04-22 08:11 | -38.24097 | 168.30247 | 43000 ft | 466 kts | 271° |
| 2026-04-22 08:11 | -38.23906 | 168.22006 | 43007 ft | 466 kts | 271° |
| 2026-04-22 08:12 | -38.23709 | 168.13770 | 43000 ft | 466 kts | 271° |
| 2026-04-22 08:12 | -38.23506 | 168.05518 | 43000 ft | 466 kts | 272° |
| 2026-04-22 08:13 | -38.23298 | 167.97274 | 43000 ft | 466 kts | 272° |
| 2026-04-22 08:13 | -38.23084 | 167.89041 | 43000 ft | 466 kts | 272° |
| 2026-04-22 08:14 | -38.22864 | 167.80814 | 43000 ft | 466 kts | 272° |
| 2026-04-22 08:14 | -38.22640 | 167.72636 | 43000 ft | 466 kts | 272° |
| 2026-04-22 08:15 | -38.22408 | 167.64386 | 43002 ft | 466 kts | 272° |
| 2026-04-22 08:15 | -38.22171 | 167.56163 | 43000 ft | 466 kts | 272° |
| 2026-04-22 08:16 | -38.21929 | 167.47934 | 43000 ft | 465 kts | 272° |
| 2026-04-22 08:16 | -38.21681 | 167.39712 | 43000 ft | 465 kts | 272° |
| 2026-04-22 08:17 | -38.21426 | 167.31484 | 43000 ft | 465 kts | 272° |
| 2026-04-22 08:17 | -38.21166 | 167.23248 | 43000 ft | 465 kts | 272° |
| 2026-04-22 08:18 | -38.20903 | 167.15082 | 43000 ft | 465 kts | 272° |
| 2026-04-22 08:18 | -38.20631 | 167.06863 | 43000 ft | 465 kts | 272° |
| 2026-04-22 08:19 | -38.20355 | 166.98643 | 43000 ft | 465 kts | 272° |
| 2026-04-22 08:19 | -38.20072 | 166.90434 | 43000 ft | 465 kts | 272° |
| 2026-04-22 08:20 | -38.19784 | 166.82226 | 43000 ft | 465 kts | 272° |
| 2026-04-22 08:20 | -38.19490 | 166.74011 | 43000 ft | 465 kts | 272° |
| 2026-04-22 08:21 | -38.19190 | 166.65793 | 43000 ft | 465 kts | 272° |
| 2026-04-22 08:21 | -38.18885 | 166.57583 | 43000 ft | 465 kts | 272° |
| 2026-04-22 08:22 | -38.18574 | 166.49366 | 43000 ft | 465 kts | 272° |
| 2026-04-22 08:22 | -38.18259 | 166.41206 | 43000 ft | 465 kts | 273° |
| 2026-04-22 08:23 | -38.17937 | 166.33002 | 43000 ft | 465 kts | 273° |
| 2026-04-22 08:23 | -38.17608 | 166.24788 | 43000 ft | 465 kts | 273° |
| 2026-04-22 08:24 | -38.17275 | 166.16597 | 43000 ft | 465 kts | 273° |
| 2026-04-22 08:24 | -38.16936 | 166.08401 | 43000 ft | 465 kts | 273° |
| 2026-04-22 08:25 | -38.16591 | 166.00190 | 43000 ft | 464 kts | 273° |
| 2026-04-22 08:25 | -38.16240 | 165.91992 | 43000 ft | 464 kts | 273° |
| 2026-04-22 08:26 | -38.15884 | 165.83795 | 43000 ft | 464 kts | 273° |
| 2026-04-22 08:26 | -38.15524 | 165.75657 | 43000 ft | 464 kts | 273° |
| 2026-04-22 08:27 | -38.15157 | 165.67462 | 43000 ft | 464 kts | 273° |
| 2026-04-22 08:27 | -38.14783 | 165.59269 | 43000 ft | 464 kts | 273° |
| 2026-04-22 08:28 | -38.14404 | 165.51078 | 43000 ft | 464 kts | 273° |
| 2026-04-22 08:28 | -38.14020 | 165.42898 | 43000 ft | 464 kts | 273° |
| 2026-04-22 08:29 | -38.13630 | 165.34718 | 43000 ft | 464 kts | 273° |
| 2026-04-22 08:29 | -38.13234 | 165.26537 | 43000 ft | 464 kts | 274° |
| 2026-04-22 08:30 | -38.12833 | 165.18361 | 43001 ft | 464 kts | 274° |
| 2026-04-22 08:30 | -38.12426 | 165.10173 | 43000 ft | 464 kts | 274° |
| 2026-04-22 08:31 | -38.12014 | 165.02006 | 43000 ft | 464 kts | 274° |
| 2026-04-22 08:32 | -38.11384 | 164.89730 | 43000 ft | 464 kts | 274° |
| 2026-04-22 08:32 | -38.10957 | 164.81555 | 43000 ft | 464 kts | 274° |
| 2026-04-22 08:33 | -38.10527 | 164.73433 | 43000 ft | 464 kts | 274° |
| 2026-04-22 08:33 | -38.10089 | 164.65262 | 43000 ft | 464 kts | 274° |
| 2026-04-22 08:34 | -38.09646 | 164.57100 | 43000 ft | 463 kts | 274° |
| 2026-04-22 08:34 | -38.09196 | 164.48921 | 43000 ft | 463 kts | 274° |
| 2026-04-22 08:35 | -38.08741 | 164.40752 | 43000 ft | 463 kts | 274° |
| 2026-04-22 08:35 | -38.08284 | 164.32652 | 43002 ft | 463 kts | 274° |
| 2026-04-22 08:36 | -38.07818 | 164.24488 | 43000 ft | 463 kts | 274° |
| 2026-04-22 08:36 | -38.07346 | 164.16315 | 43000 ft | 463 kts | 274° |
| 2026-04-22 08:37 | -38.06870 | 164.08172 | 43000 ft | 463 kts | 274° |
| 2026-04-22 08:37 | -38.06387 | 164.00013 | 43000 ft | 463 kts | 274° |
| 2026-04-22 08:38 | -38.05902 | 163.91907 | 43000 ft | 463 kts | 274° |
| 2026-04-22 08:38 | -38.05489 | 163.85084 | 43000 ft | 463 kts | 274° |
| 2026-04-22 08:39 | -38.04990 | 163.76932 | 43000 ft | 463 kts | 274° |
| 2026-04-22 08:39 | -38.04490 | 163.68853 | 43000 ft | 463 kts | 274° |
| 2026-04-22 08:40 | -38.03980 | 163.60696 | 43001 ft | 463 kts | 274° |
| 2026-04-22 08:40 | -38.03465 | 163.52554 | 43000 ft | 463 kts | 275° |
| 2026-04-22 08:41 | -38.02945 | 163.44419 | 43000 ft | 463 kts | 275° |
| 2026-04-22 08:41 | -38.02419 | 163.36284 | 43000 ft | 463 kts | 275° |
| 2026-04-22 08:42 | -38.01887 | 163.28145 | 43000 ft | 463 kts | 275° |
| 2026-04-22 08:42 | -38.01349 | 163.20008 | 43000 ft | 463 kts | 275° |
| 2026-04-22 08:43 | -38.00810 | 163.11928 | 43000 ft | 463 kts | 275° |
| 2026-04-22 08:43 | -38.00262 | 163.03805 | 43000 ft | 462 kts | 275° |
| 2026-04-22 08:44 | -37.98974 | 162.95835 | 43000 ft | 462 kts | 285° |
| 2026-04-22 08:44 | -37.97120 | 162.88032 | 43002 ft | 462 kts | 287° |
| 2026-04-22 08:45 | -37.95176 | 162.80255 | 42999 ft | 462 kts | 287° |
| 2026-04-22 08:45 | -37.93232 | 162.72478 | 42999 ft | 462 kts | 287° |
| 2026-04-22 08:46 | -37.92992 | 162.71512 | 42999 ft | 462 kts | 287° |
| 2026-04-22 08:46 | -37.91062 | 162.63749 | 42999 ft | 462 kts | 287° |
| 2026-04-22 08:47 | -37.89130 | 162.55978 | 42999 ft | 462 kts | 287° |
| 2026-04-22 08:47 | -37.87193 | 162.48212 | 43000 ft | 462 kts | 287° |
| 2026-04-22 08:48 | -37.85252 | 162.40453 | 43000 ft | 462 kts | 287° |
| 2026-04-22 08:48 | -37.83304 | 162.32696 | 42999 ft | 462 kts | 287° |
| 2026-04-22 08:49 | -37.81352 | 162.24946 | 43001 ft | 462 kts | 288° |
| 2026-04-22 08:49 | -37.79408 | 162.17253 | 43001 ft | 462 kts | 288° |
| 2026-04-22 08:50 | -37.77447 | 162.09516 | 43004 ft | 462 kts | 288° |
| 2026-04-22 08:50 | -37.75481 | 162.01784 | 42999 ft | 462 kts | 288° |
| 2026-04-22 08:51 | -37.73511 | 161.94059 | 42999 ft | 462 kts | 288° |
| 2026-04-22 08:51 | -37.71535 | 161.86337 | 42999 ft | 462 kts | 288° |
| 2026-04-22 08:52 | -37.69555 | 161.78620 | 42999 ft | 462 kts | 288° |
| 2026-04-22 08:52 | -37.67583 | 161.70958 | 42999 ft | 462 kts | 288° |
| 2026-04-22 08:53 | -37.65595 | 161.63257 | 42999 ft | 462 kts | 288° |
| 2026-04-22 08:53 | -37.63599 | 161.55553 | 43002 ft | 462 kts | 288° |
| 2026-04-22 08:54 | -37.61598 | 161.47850 | 43001 ft | 462 kts | 288° |
| 2026-04-22 08:54 | -37.59595 | 161.40163 | 43004 ft | 462 kts | 288° |
| 2026-04-22 08:55 | -37.57586 | 161.32476 | 42999 ft | 462 kts | 288° |
| 2026-04-22 08:55 | -37.55569 | 161.24779 | 42999 ft | 462 kts | 288° |
| 2026-04-22 08:56 | -37.53548 | 161.17094 | 42999 ft | 462 kts | 288° |
| 2026-04-22 08:56 | -37.51523 | 161.09416 | 42999 ft | 462 kts | 288° |
| 2026-04-22 08:57 | -37.49494 | 161.01745 | 43000 ft | 462 kts | 288° |
| 2026-04-22 08:57 | -37.47470 | 160.94116 | 43001 ft | 462 kts | 288° |
| 2026-04-22 08:58 | -37.45427 | 160.86438 | 43001 ft | 462 kts | 288° |
| 2026-04-22 08:58 | -37.43385 | 160.78786 | 42999 ft | 462 kts | 288° |
| 2026-04-22 08:59 | -37.41331 | 160.71114 | 42999 ft | 462 kts | 288° |
| 2026-04-22 08:59 | -37.39276 | 160.63456 | 42999 ft | 462 kts | 288° |
| 2026-04-22 09:00 | -37.37216 | 160.55806 | 43000 ft | 462 kts | 288° |
| 2026-04-22 09:00 | -37.35153 | 160.48167 | 42999 ft | 462 kts | 289° |
| 2026-04-22 09:01 | -37.33098 | 160.40578 | 42999 ft | 462 kts | 289° |
| 2026-04-22 09:01 | -37.31020 | 160.32929 | 43000 ft | 462 kts | 289° |
| 2026-04-22 09:02 | -37.28941 | 160.25298 | 42999 ft | 462 kts | 289° |
| 2026-04-22 09:02 | -37.26855 | 160.17663 | 43000 ft | 462 kts | 289° |
| 2026-04-22 09:03 | -37.24766 | 160.10040 | 43000 ft | 462 kts | 289° |
| 2026-04-22 09:03 | -37.22678 | 160.02441 | 43001 ft | 462 kts | 289° |
| 2026-04-22 09:04 | -37.20575 | 159.94810 | 43000 ft | 462 kts | 289° |
| 2026-04-22 09:04 | -37.18469 | 159.87190 | 43000 ft | 462 kts | 289° |
| 2026-04-22 09:05 | -37.16374 | 159.79631 | 43002 ft | 462 kts | 289° |
| 2026-04-22 09:05 | -37.14261 | 159.72030 | 42999 ft | 462 kts | 289° |
| 2026-04-22 09:06 | -37.12141 | 159.64424 | 43001 ft | 462 kts | 289° |
| 2026-04-22 09:06 | -37.10018 | 159.56832 | 43000 ft | 462 kts | 289° |
| 2026-04-22 09:07 | -37.07893 | 159.49250 | 43000 ft | 462 kts | 289° |
| 2026-04-22 09:07 | -37.05759 | 159.41661 | 43003 ft | 462 kts | 289° |
| 2026-04-22 09:08 | -37.03634 | 159.34124 | 43000 ft | 462 kts | 289° |
| 2026-04-22 09:08 | -37.01491 | 159.26543 | 43003 ft | 462 kts | 289° |
| 2026-04-22 09:09 | -36.99342 | 159.18966 | 43006 ft | 462 kts | 289° |
| 2026-04-22 09:09 | -36.97191 | 159.11401 | 42999 ft | 462 kts | 289° |
| 2026-04-22 09:10 | -36.95032 | 159.03827 | 43000 ft | 462 kts | 289° |
| 2026-04-22 09:10 | -36.92870 | 158.96268 | 42999 ft | 462 kts | 289° |
| 2026-04-22 09:11 | -36.90715 | 158.88749 | 42999 ft | 462 kts | 289° |
| 2026-04-22 09:11 | -36.88543 | 158.81194 | 43003 ft | 462 kts | 289° |
| 2026-04-22 09:12 | -36.86370 | 158.73657 | 42999 ft | 462 kts | 290° |
| 2026-04-22 09:12 | -36.84187 | 158.66107 | 43000 ft | 462 kts | 290° |
| 2026-04-22 09:13 | -36.82001 | 158.58566 | 43000 ft | 462 kts | 290° |
| 2026-04-22 09:13 | -36.79825 | 158.51079 | 43000 ft | 462 kts | 290° |
| 2026-04-22 09:14 | -36.77629 | 158.43547 | 43000 ft | 462 kts | 290° |
| 2026-04-22 09:14 | -36.75429 | 158.36020 | 43000 ft | 462 kts | 290° |
| 2026-04-22 09:15 | -36.73223 | 158.28495 | 43000 ft | 462 kts | 290° |
| 2026-04-22 09:15 | -36.71013 | 158.20973 | 43000 ft | 462 kts | 290° |
| 2026-04-22 09:16 | -36.68800 | 158.13462 | 43000 ft | 462 kts | 290° |
| 2026-04-22 09:16 | -36.66584 | 158.05963 | 43000 ft | 462 kts | 290° |
| 2026-04-22 09:17 | -36.64371 | 157.98492 | 43000 ft | 462 kts | 290° |
| 2026-04-22 09:17 | -36.62130 | 157.90949 | 43000 ft | 462 kts | 290° |
| 2026-04-22 09:18 | -36.59913 | 157.83507 | 43000 ft | 462 kts | 290° |
| 2026-04-22 09:18 | -36.57677 | 157.76019 | 43000 ft | 462 kts | 290° |
| 2026-04-22 09:19 | -36.55436 | 157.68536 | 42999 ft | 462 kts | 290° |
| 2026-04-22 09:19 | -36.53187 | 157.61046 | 43000 ft | 462 kts | 290° |
| 2026-04-22 09:20 | -36.50937 | 157.53575 | 43003 ft | 462 kts | 290° |
| 2026-04-22 09:20 | -36.48682 | 157.46104 | 42999 ft | 462 kts | 290° |
| 2026-04-22 09:21 | -36.46434 | 157.38677 | 43000 ft | 462 kts | 290° |
| 2026-04-22 09:21 | -36.44170 | 157.31213 | 43003 ft | 462 kts | 290° |
| 2026-04-22 09:22 | -36.41899 | 157.23751 | 43000 ft | 462 kts | 290° |
| 2026-04-22 09:22 | -36.39622 | 157.16287 | 42999 ft | 462 kts | 290° |
| 2026-04-22 09:23 | -36.37346 | 157.08845 | 42999 ft | 462 kts | 290° |
| 2026-04-22 09:23 | -36.35060 | 157.01391 | 43000 ft | 462 kts | 291° |
| 2026-04-22 09:24 | -36.32772 | 156.93948 | 43000 ft | 462 kts | 291° |
| 2026-04-22 09:24 | -36.30866 | 156.87765 | 43005 ft | 462 kts | 291° |
| 2026-04-22 09:25 | -36.28187 | 156.79093 | 43003 ft | 462 kts | 291° |
| 2026-04-22 09:25 | -36.25891 | 156.71685 | 43000 ft | 462 kts | 291° |
| 2026-04-22 09:26 | -36.23586 | 156.64263 | 43000 ft | 462 kts | 291° |
| 2026-04-22 09:26 | -36.21667 | 156.58101 | 42999 ft | 462 kts | 291° |
| 2026-04-22 09:27 | -36.19351 | 156.50681 | 43000 ft | 462 kts | 291° |
| 2026-04-22 09:27 | -36.17036 | 156.43283 | 43000 ft | 462 kts | 291° |
| 2026-04-22 09:28 | -36.14706 | 156.35855 | 43000 ft | 462 kts | 291° |
| 2026-04-22 09:28 | -36.12374 | 156.28444 | 43000 ft | 462 kts | 291° |
| 2026-04-22 09:29 | -36.10045 | 156.21058 | 43000 ft | 462 kts | 291° |
| 2026-04-22 09:29 | -36.07722 | 156.13710 | 43000 ft | 462 kts | 291° |
| 2026-04-22 09:30 | -36.05380 | 156.06320 | 43000 ft | 462 kts | 291° |
| 2026-04-22 09:30 | -36.03030 | 155.98924 | 43000 ft | 462 kts | 291° |
| 2026-04-22 09:31 | -36.00678 | 155.91538 | 43000 ft | 462 kts | 291° |
| 2026-04-22 09:31 | -35.98326 | 155.84172 | 43002 ft | 462 kts | 291° |
| 2026-04-22 09:32 | -35.95976 | 155.76835 | 43003 ft | 462 kts | 291° |
| 2026-04-22 09:32 | -35.93607 | 155.69453 | 43000 ft | 461 kts | 291° |
| 2026-04-22 09:33 | -35.91241 | 155.62098 | 43003 ft | 461 kts | 291° |
| 2026-04-22 09:33 | -35.88861 | 155.54718 | 43000 ft | 461 kts | 291° |
| 2026-04-22 09:34 | -35.86483 | 155.47366 | 43000 ft | 461 kts | 291° |
| 2026-04-22 09:34 | -35.84113 | 155.40053 | 42999 ft | 461 kts | 291° |
| 2026-04-22 09:35 | -35.80530 | 155.29035 | 43002 ft | 461 kts | 291° |
| 2026-04-22 09:35 | -35.78137 | 155.21697 | 42999 ft | 461 kts | 292° |
| 2026-04-22 09:36 | -35.75739 | 155.14363 | 43000 ft | 461 kts | 292° |
| 2026-04-22 09:36 | -35.73338 | 155.07038 | 42999 ft | 461 kts | 292° |
| 2026-04-22 09:37 | -35.70927 | 154.99699 | 43000 ft | 461 kts | 292° |
| 2026-04-22 09:37 | -35.68512 | 154.92370 | 43000 ft | 461 kts | 292° |
| 2026-04-22 09:38 | -35.66115 | 154.85108 | 43000 ft | 461 kts | 292° |
| 2026-04-22 09:38 | -35.63694 | 154.77796 | 42999 ft | 461 kts | 292° |
| 2026-04-22 09:39 | -35.61199 | 154.70535 | 42998 ft | 462 kts | 297° |
| 2026-04-22 09:39 | -35.59470 | 154.67220 | 43003 ft | 461 kts | 308° |
| 2026-04-22 09:39 | -35.57474 | 154.64120 | 43001 ft | 461 kts | 309° |
| 2026-04-22 09:40 | -35.53318 | 154.58115 | 43002 ft | 462 kts | 311° |
| 2026-04-22 09:40 | -35.49103 | 154.52175 | 43000 ft | 462 kts | 311° |
| 2026-04-22 09:41 | -35.44895 | 154.46216 | 42999 ft | 462 kts | 310° |
| 2026-04-22 09:41 | -35.40716 | 154.40269 | 42998 ft | 462 kts | 310° |
| 2026-04-22 09:42 | -35.36526 | 154.34305 | 43002 ft | 462 kts | 310° |
| 2026-04-22 09:42 | -35.32331 | 154.28344 | 42999 ft | 462 kts | 310° |
| 2026-04-22 09:43 | -35.28129 | 154.22386 | 43000 ft | 462 kts | 310° |
| 2026-04-22 09:43 | -35.23926 | 154.16438 | 42999 ft | 462 kts | 310° |
| 2026-04-22 09:44 | -35.19724 | 154.10501 | 42998 ft | 462 kts | 310° |
| 2026-04-22 09:44 | -35.15515 | 154.04565 | 42998 ft | 462 kts | 310° |
| 2026-04-22 09:45 | -35.11303 | 153.98634 | 42998 ft | 462 kts | 310° |
| 2026-04-22 09:45 | -35.07090 | 153.92713 | 43000 ft | 462 kts | 311° |
| 2026-04-22 09:46 | -35.02874 | 153.86797 | 43001 ft | 462 kts | 311° |
| 2026-04-22 09:46 | -34.98649 | 153.80879 | 42998 ft | 462 kts | 311° |
| 2026-04-22 09:47 | -34.94457 | 153.75016 | 43002 ft | 462 kts | 311° |
| 2026-04-22 09:47 | -34.90234 | 153.69122 | 42999 ft | 462 kts | 311° |
| 2026-04-22 09:48 | -34.86006 | 153.63229 | 42998 ft | 462 kts | 311° |
| 2026-04-22 09:48 | -34.81775 | 153.57344 | 43002 ft | 462 kts | 311° |
| 2026-04-22 09:49 | -34.77543 | 153.51465 | 43002 ft | 462 kts | 311° |
| 2026-04-22 09:49 | -34.73302 | 153.45585 | 43000 ft | 462 kts | 311° |
| 2026-04-22 09:50 | -34.69077 | 153.39737 | 42829 ft | 460 kts | 311° |
| 2026-04-22 09:50 | -34.64878 | 153.33934 | 42667 ft | 458 kts | 311° |
| 2026-04-22 09:51 | -34.60688 | 153.28154 | 42479 ft | 455 kts | 311° |
| 2026-04-22 09:51 | -34.58594 | 153.25269 | 42353 ft | 454 kts | 311° |
| 2026-04-22 09:51 | -34.56517 | 153.22408 | 41938 ft | 451 kts | 311° |
| 2026-04-22 09:52 | -34.54437 | 153.19547 | 41273 ft | 453 kts | 311° |
| 2026-04-22 09:52 | -34.52342 | 153.16668 | 40497 ft | 458 kts | 311° |
| 2026-04-22 09:52 | -34.50224 | 153.13759 | 39679 ft | 462 kts | 311° |
| 2026-04-22 09:52 | -34.48084 | 153.10822 | 38908 ft | 466 kts | 311° |
| 2026-04-22 09:53 | -34.45932 | 153.07872 | 38159 ft | 468 kts | 311° |
| 2026-04-22 09:53 | -34.43772 | 153.04913 | 37396 ft | 470 kts | 311° |
| 2026-04-22 09:53 | -34.41601 | 153.01942 | 36632 ft | 471 kts | 311° |
| 2026-04-22 09:53 | -34.39420 | 152.98959 | 35859 ft | 472 kts | 311° |
| 2026-04-22 09:54 | -34.37237 | 152.95977 | 35078 ft | 472 kts | 311° |
| 2026-04-22 09:54 | -34.35079 | 152.93030 | 34284 ft | 473 kts | 311° |
| 2026-04-22 09:54 | -34.32891 | 152.90046 | 33462 ft | 474 kts | 311° |
| 2026-04-22 09:54 | -34.30702 | 152.87062 | 32594 ft | 475 kts | 311° |
| 2026-04-22 09:55 | -34.28511 | 152.84079 | 31771 ft | 475 kts | 311° |
| 2026-04-22 09:55 | -34.26343 | 152.81130 | 30865 ft | 457 kts | 311° |
| 2026-04-22 09:55 | -34.24286 | 152.78334 | 30211 ft | 433 kts | 311° |
| 2026-04-22 09:55 | -34.22348 | 152.75703 | 29657 ft | 409 kts | 311° |
| 2026-04-22 09:56 | -34.20472 | 152.73156 | 29135 ft | 407 kts | 311° |
| 2026-04-22 09:56 | -34.18582 | 152.70591 | 28588 ft | 409 kts | 311° |
| 2026-04-22 09:56 | -34.16690 | 152.68026 | 28029 ft | 408 kts | 311° |
| 2026-04-22 09:56 | -34.14809 | 152.65478 | 27455 ft | 406 kts | 311° |
| 2026-04-22 09:57 | -34.12933 | 152.62939 | 26915 ft | 404 kts | 311° |
| 2026-04-22 09:57 | -34.11068 | 152.60416 | 26353 ft | 403 kts | 311° |
| 2026-04-22 09:57 | -34.09364 | 152.57726 | 25797 ft | 400 kts | 301° |
| 2026-04-22 09:57 | -34.08254 | 152.54732 | 25246 ft | 398 kts | 286° |
| 2026-04-22 09:58 | -34.07737 | 152.51444 | 24675 ft | 396 kts | 277° |
| 2026-04-22 09:58 | -34.07419 | 152.48160 | 24108 ft | 394 kts | 276° |
| 2026-04-22 09:58 | -34.07114 | 152.44870 | 23527 ft | 392 kts | 276° |
| 2026-04-22 09:58 | -34.06810 | 152.41608 | 22972 ft | 390 kts | 276° |
| 2026-04-22 09:59 | -34.06505 | 152.38365 | 22409 ft | 388 kts | 276° |
| 2026-04-22 09:59 | -34.06200 | 152.35142 | 21836 ft | 385 kts | 276° |
| 2026-04-22 09:59 | -34.05896 | 152.31935 | 21276 ft | 382 kts | 276° |
| 2026-04-22 09:59 | -34.05594 | 152.28767 | 20717 ft | 379 kts | 276° |
| 2026-04-22 10:00 | -34.05295 | 152.25628 | 20163 ft | 375 kts | 276° |
| 2026-04-22 10:00 | -34.04997 | 152.22517 | 19620 ft | 372 kts | 276° |
| 2026-04-22 10:00 | -34.04701 | 152.19432 | 19063 ft | 369 kts | 276° |
| 2026-04-22 10:00 | -34.04409 | 152.16403 | 18527 ft | 366 kts | 276° |
| 2026-04-22 10:01 | -34.04116 | 152.13370 | 17986 ft | 363 kts | 276° |
| 2026-04-22 10:01 | -34.03825 | 152.10361 | 17457 ft | 360 kts | 276° |
| 2026-04-22 10:01 | -34.03536 | 152.07386 | 16912 ft | 357 kts | 276° |
| 2026-04-22 10:01 | -34.03250 | 152.04420 | 16389 ft | 354 kts | 276° |
| 2026-04-22 10:02 | -34.02957 | 152.01483 | 15849 ft | 351 kts | 277° |
| 2026-04-22 10:02 | -34.02662 | 151.98585 | 15320 ft | 348 kts | 277° |
| 2026-04-22 10:02 | -34.02368 | 151.95688 | 14784 ft | 345 kts | 277° |
| 2026-04-22 10:02 | -34.02079 | 151.92827 | 14267 ft | 342 kts | 277° |
| 2026-04-22 10:03 | -34.01791 | 151.89990 | 13736 ft | 339 kts | 277° |
| 2026-04-22 10:03 | -34.01506 | 151.87178 | 13216 ft | 337 kts | 277° |
| 2026-04-22 10:03 | -34.01223 | 151.84394 | 12697 ft | 334 kts | 277° |
| 2026-04-22 10:03 | -34.00941 | 151.81629 | 12185 ft | 331 kts | 277° |
| 2026-04-22 10:04 | -34.00661 | 151.78884 | 11669 ft | 329 kts | 277° |
| 2026-04-22 10:04 | -34.00388 | 151.76189 | 11175 ft | 326 kts | 277° |
| 2026-04-22 10:04 | -34.00113 | 151.73503 | 10660 ft | 323 kts | 277° |
| 2026-04-22 10:04 | -33.99835 | 151.70811 | 10200 ft | 320 kts | 277° |
| 2026-04-22 10:05 | -33.99563 | 151.68173 | 9768 ft | 307 kts | 277° |
| 2026-04-22 10:05 | -33.99307 | 151.65706 | 9563 ft | 292 kts | 277° |
| 2026-04-22 10:05 | -33.99061 | 151.63325 | 9374 ft | 284 kts | 277° |
| 2026-04-22 10:05 | -33.98817 | 151.60970 | 9073 ft | 283 kts | 277° |
| 2026-04-22 10:06 | -33.98572 | 151.58615 | 8715 ft | 282 kts | 277° |
| 2026-04-22 10:06 | -33.98328 | 151.56277 | 8439 ft | 281 kts | 277° |
| 2026-04-22 10:06 | -33.98084 | 151.53941 | 8237 ft | 280 kts | 277° |
| 2026-04-22 10:06 | -33.97842 | 151.51615 | 7995 ft | 279 kts | 277° |
| 2026-04-22 10:07 | -33.97604 | 151.49326 | 7565 ft | 278 kts | 277° |
| 2026-04-22 10:07 | -33.97364 | 151.47033 | 7125 ft | 276 kts | 277° |
| 2026-04-22 10:07 | -33.97126 | 151.44755 | 6687 ft | 274 kts | 277° |
| 2026-04-22 10:07 | -33.96890 | 151.42511 | 6255 ft | 272 kts | 277° |
| 2026-04-22 10:08 | -33.96653 | 151.40256 | 5827 ft | 270 kts | 277° |
| 2026-04-22 10:08 | -33.96418 | 151.38023 | 5640 ft | 269 kts | 277° |
| 2026-04-22 10:08 | -33.96185 | 151.35777 | 5617 ft | 270 kts | 277° |
| 2026-04-22 10:08 | -33.95957 | 151.33541 | 5621 ft | 269 kts | 277° |
| 2026-04-22 10:09 | -33.95717 | 151.31296 | 5810 ft | 273 kts | 274° |
| 2026-04-22 10:09 | -33.95484 | 151.29017 | 5973 ft | 276 kts | 274° |
| 2026-04-22 10:09 | -33.95250 | 151.26713 | 5993 ft | 276 kts | 274° |
| 2026-04-22 10:09 | -33.95006 | 151.24416 | 5992 ft | 276 kts | 276° |
| 2026-04-22 10:10 | -33.94706 | 151.22131 | 5992 ft | 277 kts | 276° |
| 2026-04-22 10:10 | -33.94392 | 151.19868 | 5996 ft | 277 kts | 277° |
| 2026-04-22 10:10 | -33.94058 | 151.17578 | 5990 ft | 276 kts | 279° |
| 2026-04-22 10:10 | -33.93368 | 151.15470 | 5991 ft | 266 kts | 298° |
| 2026-04-22 10:11 | -33.92386 | 151.13641 | 5989 ft | 254 kts | 302° |
| 2026-04-22 10:11 | -33.91387 | 151.11913 | 5966 ft | 250 kts | 303° |
| 2026-04-22 10:11 | -33.90731 | 151.10783 | 5793 ft | 249 kts | 303° |
| 2026-04-22 10:11 | -33.89733 | 151.09058 | 5354 ft | 253 kts | 302° |
| 2026-04-22 10:12 | -33.88717 | 151.07305 | 4892 ft | 257 kts | 303° |
| 2026-04-22 10:12 | -33.87697 | 151.05549 | 4385 ft | 250 kts | 303° |
| 2026-04-22 10:12 | -33.86412 | 151.03329 | 3754 ft | 240 kts | 303° |
| 2026-04-22 10:12 | -33.85459 | 151.01677 | 3264 ft | 238 kts | 303° |
| 2026-04-22 10:13 | -33.84831 | 151.00588 | 3071 ft | 232 kts | 303° |
| 2026-04-22 10:13 | -33.83922 | 150.99007 | 2991 ft | 226 kts | 302° |
| 2026-04-22 10:13 | -33.83043 | 150.97479 | 3012 ft | 220 kts | 303° |
| 2026-04-22 10:13 | -33.82186 | 150.95992 | 3005 ft | 219 kts | 302° |
| 2026-04-22 10:14 | -33.81315 | 150.94481 | 2987 ft | 220 kts | 302° |
| 2026-04-22 10:14 | -33.80304 | 150.93091 | 3008 ft | 224 kts | 322° |
| 2026-04-22 10:14 | -33.78866 | 150.92428 | 3006 ft | 224 kts | 355° |
| 2026-04-22 10:14 | -33.77411 | 150.92752 | 2999 ft | 209 kts | 30° |
| 2026-04-22 10:15 | -33.76366 | 150.93889 | 3014 ft | 200 kts | 58° |
| 2026-04-22 10:15 | -33.75594 | 150.95274 | 3007 ft | 198 kts | 62° |
| 2026-04-22 10:15 | -33.74861 | 150.96681 | 3002 ft | 198 kts | 63° |
| 2026-04-22 10:15 | -33.74138 | 150.98082 | 3004 ft | 195 kts | 63° |
| 2026-04-22 10:16 | -33.73428 | 150.99461 | 3006 ft | 194 kts | 63° |
| 2026-04-22 10:16 | -33.72716 | 151.00839 | 3003 ft | 193 kts | 62° |
| 2026-04-22 10:16 | -33.72017 | 151.02190 | 3002 ft | 193 kts | 63° |
| 2026-04-22 10:16 | -33.71314 | 151.03566 | 3011 ft | 193 kts | 64° |
| 2026-04-22 10:17 | -33.70793 | 151.05019 | 2994 ft | 189 kts | 84° |
| 2026-04-22 10:17 | -33.70998 | 151.06516 | 2998 ft | 182 kts | 120° |
| 2026-04-22 10:17 | -33.71770 | 151.07700 | 3001 ft | 179 kts | 135° |
| 2026-04-22 10:17 | -33.72657 | 151.08748 | 2995 ft | 178 kts | 137° |
| 2026-04-22 10:18 | -33.73556 | 151.09778 | 2986 ft | 178 kts | 137° |
| 2026-04-22 10:18 | -33.74456 | 151.10810 | 2995 ft | 178 kts | 137° |
| 2026-04-22 10:18 | -33.75347 | 151.11840 | 2997 ft | 178 kts | 137° |
| 2026-04-22 10:18 | -33.76353 | 151.12691 | 2992 ft | 179 kts | 156° |
| 2026-04-22 10:19 | -33.77535 | 151.13126 | 3000 ft | 177 kts | 166° |
| 2026-04-22 10:19 | -33.78743 | 151.13456 | 2904 ft | 177 kts | 165° |
| 2026-04-22 10:19 | -33.79947 | 151.13792 | 2677 ft | 176 kts | 167° |
| 2026-04-22 10:19 | -33.81132 | 151.14093 | 2429 ft | 173 kts | 167° |
| 2026-04-22 10:20 | -33.82287 | 151.14392 | 2189 ft | 161 kts | 167° |
| 2026-04-22 10:20 | -33.83310 | 151.14659 | 1976 ft | 142 kts | 166° |
| 2026-04-22 10:20 | -33.84255 | 151.14905 | 1805 ft | 142 kts | 166° |
| 2026-04-22 10:20 | -33.85212 | 151.15155 | 1614 ft | 142 kts | 167° |
| 2026-04-22 10:21 | -33.86183 | 151.15407 | 1408 ft | 142 kts | 168° |
| 2026-04-22 10:21 | -33.87155 | 151.15659 | 1234 ft | 143 kts | 167° |
| 2026-04-22 10:21 | -33.88078 | 151.15899 | 1034 ft | 128 kts | 168° |
| 2026-04-22 10:21 | -33.88924 | 151.16117 | 860 ft | 121 kts | 166° |
| 2026-04-22 10:22 | -33.89724 | 151.16325 | 698 ft | 115 kts | 165° |
| 2026-04-22 10:22 | -33.90500 | 151.16528 | 570 ft | 111 kts | 167° |
| 2026-04-22 10:22 | -33.91258 | 151.16732 | 415 ft | 118 kts | 165° |
| 2026-04-22 10:22 | -33.92052 | 151.16943 | 256 ft | 116 kts | 166° |
| 2026-04-22 10:23 | -33.92831 | 151.17135 | 109 ft | 112 kts | 166° |
| 2026-04-22 10:23 | -33.93617 | 151.17335 | 41 ft | 119 kts | 167° |
| 2026-04-22 10:23 | -33.94329 | 151.17518 | 29 ft | 81 kts | 167° |
| 2026-04-22 10:23 | -33.94589 | 151.17588 | 29 ft | 1 kts | 171° |
| 2026-04-22 10:24 | -33.94719 | 151.17572 | 29 ft | 7 kts | 225° |
| 2026-04-22 10:24 | -33.94741 | 151.17493 | 29 ft | 21 kts | 270° |
| 2026-04-22 10:24 | -33.94736 | 151.17469 | 29 ft | 1 kts | 292° |
| 2026-04-22 10:24 | -33.94731 | 151.17458 | 28 ft | 1 kts | 303° |
| 2026-04-22 10:25 | -33.94707 | 151.17434 | 29 ft | 13 kts | 327° |
| 2026-04-22 10:25 | -33.94581 | 151.17380 | 28 ft | 22 kts | 349° |
| 2026-04-22 10:25 | -33.94403 | 151.17339 | 28 ft | 29 kts | 348° |
| 2026-04-22 10:25 | -33.94193 | 151.17285 | 28 ft | 33 kts | 348° |
| 2026-04-22 10:26 | -33.93954 | 151.17223 | 26 ft | 37 kts | 347° |
| 2026-04-22 10:26 | -33.93687 | 151.17153 | 28 ft | 41 kts | 347° |
| 2026-04-22 10:26 | -33.93506 | 151.17049 | 27 ft | 16 kts | 284° |
| 2026-04-22 10:26 | -33.93509 | 151.16940 | 27 ft | 9 kts | 285° |
| 2026-04-22 10:27 | -33.93479 | 151.16889 | 27 ft | 9 kts | 297° |
| 2026-04-22 10:27 | -33.93478 | 151.16810 | 27 ft | 8 kts | 261° |
| 2026-04-22 10:27 | -33.93480 | 151.16793 | 27 ft | 0 kts | 260° |